Aérodrome :







RETROUVEZ-NOUS SUR...

 
LOGIN :

S'inscrire | Disclaimer

   EN    FR    IT 

 









Légende :    VFR   VFR Marginal   IFR   IFR Intensif   IFR Très Intensif
Visi : 
Plafond : 
>= 8 km
>= 3000ft
5 à 8 km
1000 à 3000 ft
1500m à 5 km
500 à 1000 ft
800 à 1500m
200 à 500 ft
< 800m
< 200 ft
Symboles :   Orages  Brouillard  Fortes neiges  Fortes précipitations  Vent > 20 kt






- Altitude de l'aérodrome : 180 ft
- Code IATA : YZV


CYZV - Sept-Iles

DERNIER METAR :
  • 141200Z 03009G15KT 30SM FEW120 FEW240 17/05 A3013 RMK AC1CI1 AC TR SLP207 DENSITY ALT 200FT

METARs EXPIRÉS :
  • 141100Z 02010KT 30SM FEW120 FEW240 15/04 A3012 RMK AC1CI1 AC TR CI TR SLP202

TAF TAF CYZV
Valide du 14 à 12h jusqu'au 15 à 12h UTC


141138Z 1412/1512 02008KT P6SM FEW120
FM141500 16010KT P6SM SKC
BECMG 1418/1420 20010KT
BECMG 1422/1424 24006KT
FM150300 02005KT P6SM FEW080
BECMG 1506/1508 08008KT RMK NXT FCST BY 141800Z
FIR CZUL / Amérique du Nord



MET'MAP, la Météo Aéronautique d'un coup d'oeil ! - Copyright ORBIFLY Décembre 2007 - Disclaimer

ORBIFLY MET'MAP TEAM :

Programmation & Développement : Alexandra Zaïnal
Sur une idée originale de : Baudouin d'Aumeries
Assistance à la programmation : Marc-Olivier Méhu
Soutien technique & logistique : Manuel Goepfert

Contact : metmap@orbifly.com




SOURCES & CREDITS :

   NOAA